sensor_id;sensor_type;location;lat;lon;timestamp;pressure;altitude;pressure_sealevel;temperature
71807;BMP280;59655;42.590;23.364;2023-01-15T00:01:02;91779.38;;;2.92
71807;BMP280;59655;42.590;23.364;2023-01-15T00:03:28;91782.00;;;2.98
71807;BMP280;59655;42.590;23.364;2023-01-15T00:05:54;91777.69;;;3.00
71807;BMP280;59655;42.590;23.364;2023-01-15T00:08:19;91777.47;;;2.93
71807;BMP280;59655;42.590;23.364;2023-01-15T00:10:45;91775.31;;;2.97
71807;BMP280;59655;42.590;23.364;2023-01-15T00:13:10;91772.47;;;2.95
71807;BMP280;59655;42.590;23.364;2023-01-15T00:15:36;91777.94;;;3.03
71807;BMP280;59655;42.590;23.364;2023-01-15T00:18:01;91767.22;;;3.00
71807;BMP280;59655;42.590;23.364;2023-01-15T00:20:27;91775.13;;;3.12
71807;BMP280;59655;42.590;23.364;2023-01-15T00:22:53;91773.19;;;3.07
71807;BMP280;59655;42.590;23.364;2023-01-15T00:25:18;91772.06;;;3.25
71807;BMP280;59655;42.590;23.364;2023-01-15T00:28:03;91769.41;;;3.30
71807;BMP280;59655;42.590;23.364;2023-01-15T00:30:28;91768.69;;;3.35
71807;BMP280;59655;42.590;23.364;2023-01-15T00:32:55;91768.69;;;3.35
71807;BMP280;59655;42.590;23.364;2023-01-15T00:35:22;91761.56;;;3.30
71807;BMP280;59655;42.590;23.364;2023-01-15T00:37:48;91772.28;;;3.32
71807;BMP280;59655;42.590;23.364;2023-01-15T00:40:15;91767.75;;;3.38
71807;BMP280;59655;42.590;23.364;2023-01-15T00:42:41;91773.00;;;3.38
71807;BMP280;59655;42.590;23.364;2023-01-15T00:45:08;91764.69;;;3.46
71807;BMP280;59655;42.590;23.364;2023-01-15T00:47:39;91762.97;;;3.37
71807;BMP280;59655;42.590;23.364;2023-01-15T00:50:07;91760.84;;;3.47
71807;BMP280;59655;42.590;23.364;2023-01-15T00:52:33;91760.13;;;3.40
71807;BMP280;59655;42.590;23.364;2023-01-15T00:54:58;91759.16;;;3.44
71807;BMP280;59655;42.590;23.364;2023-01-15T00:57:24;91758.66;;;3.00
71807;BMP280;59655;42.590;23.364;2023-01-15T00:59:49;91757.69;;;3.09
71807;BMP280;59655;42.590;23.364;2023-01-15T01:02:15;91757.94;;;3.05
71807;BMP280;59655;42.590;23.364;2023-01-15T01:04:40;91759.34;;;2.89
71807;BMP280;59655;42.590;23.364;2023-01-15T01:07:05;91767.00;;;3.04
71807;BMP280;59655;42.590;23.364;2023-01-15T01:09:31;91764.84;;;2.97
71807;BMP280;59655;42.590;23.364;2023-01-15T01:11:56;91762.69;;;3.01
71807;BMP280;59655;42.590;23.364;2023-01-15T01:14:22;91761.72;;;2.98
71807;BMP280;59655;42.590;23.364;2023-01-15T01:16:47;91767.47;;;3.03
71807;BMP280;59655;42.590;23.364;2023-01-15T01:19:16;91760.06;;;2.84
71807;BMP280;59655;42.590;23.364;2023-01-15T01:21:42;91766.06;;;2.96
71807;BMP280;59655;42.590;23.364;2023-01-15T01:24:13;91757.47;;;3.12
71807;BMP280;59655;42.590;23.364;2023-01-15T01:26:39;91752.69;;;3.11
71807;BMP280;59655;42.590;23.364;2023-01-15T01:29:05;91753.88;;;2.93
71807;BMP280;59655;42.590;23.364;2023-01-15T01:31:31;91745.53;;;2.89
71807;BMP280;59655;42.590;23.364;2023-01-15T01:33:57;91744.78;;;2.77
71807;BMP280;59655;42.590;23.364;2023-01-15T01:36:31;91737.63;;;2.77
71807;BMP280;59655;42.590;23.364;2023-01-15T01:38:57;91746.22;;;2.84
71807;BMP280;59655;42.590;23.364;2023-01-15T01:41:22;91744.78;;;2.77
71807;BMP280;59655;42.590;23.364;2023-01-15T01:46:23;91735.31;;;2.96
71807;BMP280;59655;42.590;23.364;2023-01-15T01:48:51;91741.97;;;2.92
71807;BMP280;59655;42.590;23.364;2023-01-15T01:51:19;91735.31;;;2.91
71807;BMP280;59655;42.590;23.364;2023-01-15T01:53:45;91741.97;;;2.97
71807;BMP280;59655;42.590;23.364;2023-01-15T01:56:11;91738.63;;;3.03
71807;BMP280;59655;42.590;23.364;2023-01-15T01:58:37;91742.47;;;3.02
71807;BMP280;59655;42.590;23.364;2023-01-15T02:01:03;91742.91;;;3.00
71807;BMP280;59655;42.590;23.364;2023-01-15T02:03:33;91733.38;;;2.91
71807;BMP280;59655;42.590;23.364;2023-01-15T02:06:01;91741.25;;;3.03
71807;BMP280;59655;42.590;23.364;2023-01-15T02:08:28;91739.84;;;3.02
71807;BMP280;59655;42.590;23.364;2023-01-15T02:10:54;91739.84;;;3.07
71807;BMP280;59655;42.590;23.364;2023-01-15T02:13:37;91743.16;;;2.91
71807;BMP280;59655;42.590;23.364;2023-01-15T02:16:10;91744.56;;;2.81
71807;BMP280;59655;42.590;23.364;2023-01-15T02:27:11;91736.50;;;3.12
71807;BMP280;59655;42.590;23.364;2023-01-15T02:32:43;91723.16;;;3.05
71807;BMP280;59655;42.590;23.364;2023-01-15T02:35:17;91732.47;;;3.11
71807;BMP280;59655;42.590;23.364;2023-01-15T02:37:48;91735.31;;;3.08
71807;BMP280;59655;42.590;23.364;2023-01-15T02:40:18;91743.22;;;3.25
71807;BMP280;59655;42.590;23.364;2023-01-15T02:42:46;91734.84;;;3.26
71807;BMP280;59655;42.590;23.364;2023-01-15T02:45:15;91726.50;;;3.39
71807;BMP280;59655;42.590;23.364;2023-01-15T02:47:43;91725.81;;;3.44
71807;BMP280;59655;42.590;23.364;2023-01-15T02:50:13;91722.72;;;3.40
71807;BMP280;59655;42.590;23.364;2023-01-15T02:52:44;91722.72;;;3.40
71807;BMP280;59655;42.590;23.364;2023-01-15T02:55:22;91724.59;;;3.45
71807;BMP280;59655;42.590;23.364;2023-01-15T02:57:49;91722.47;;;3.49
71807;BMP280;59655;42.590;23.364;2023-01-15T03:00:18;91721.75;;;3.49
71807;BMP280;59655;42.590;23.364;2023-01-15T03:02:49;91727.72;;;3.38
71807;BMP280;59655;42.590;23.364;2023-01-15T03:05:35;91720.53;;;3.27
71807;BMP280;59655;42.590;23.364;2023-01-15T03:08:04;91730.59;;;3.23
71807;BMP280;59655;42.590;23.364;2023-01-15T03:10:37;91727.47;;;3.13
71807;BMP280;59655;42.590;23.364;2023-01-15T03:13:03;91715.28;;;3.05
71807;BMP280;59655;42.590;23.364;2023-01-15T03:21:30;91732.19;;;2.98
71807;BMP280;59655;42.590;23.364;2023-01-15T03:23:59;91729.13;;;3.05
71807;BMP280;59655;42.590;23.364;2023-01-15T03:26:26;91738.19;;;3.15
71807;BMP280;59655;42.590;23.364;2023-01-15T03:28:52;91727.94;;;3.06
71807;BMP280;59655;42.590;23.364;2023-01-15T03:31:18;91739.59;;;2.99
71807;BMP280;59655;42.590;23.364;2023-01-15T03:33:43;91728.38;;;2.93
71807;BMP280;59655;42.590;23.364;2023-01-15T03:36:09;91727.44;;;2.91
71807;BMP280;59655;42.590;23.364;2023-01-15T03:38:36;91736.72;;;3.03
71807;BMP280;59655;42.590;23.364;2023-01-15T03:44:34;91738.44;;;3.17
71807;BMP280;59655;42.590;23.364;2023-01-15T03:55:21;91732.97;;;3.38
71807;BMP280;59655;42.590;23.364;2023-01-15T03:57:50;91735.34;;;3.13
71807;BMP280;59655;42.590;23.364;2023-01-15T04:00:26;91735.81;;;3.17
71807;BMP280;59655;42.590;23.364;2023-01-15T04:02:54;91737.00;;;3.39
71807;BMP280;59655;42.590;23.364;2023-01-15T04:05:21;91727.00;;;3.43
71807;BMP280;59655;42.590;23.364;2023-01-15T04:07:49;91729.38;;;3.18
71807;BMP280;59655;42.590;23.364;2023-01-15T04:10:16;91723.66;;;3.31
71807;BMP280;59655;42.590;23.364;2023-01-15T04:12:41;91723.66;;;3.43
71807;BMP280;59655;42.590;23.364;2023-01-15T04:15:07;91718.41;;;3.48
71807;BMP280;59655;42.590;23.364;2023-01-15T04:17:32;91715.09;;;3.48
71807;BMP280;59655;42.590;23.364;2023-01-15T04:19:58;91722.69;;;3.51
71807;BMP280;59655;42.590;23.364;2023-01-15T04:22:23;91723.44;;;3.52
71807;BMP280;59655;42.590;23.364;2023-01-15T04:24:49;91729.84;;;3.45
71807;BMP280;59655;42.590;23.364;2023-01-15T04:27:14;91726.28;;;3.26
71807;BMP280;59655;42.590;23.364;2023-01-15T04:29:39;91736.75;;;3.31
71807;BMP280;59655;42.590;23.364;2023-01-15T04:32:05;91733.44;;;3.42
71807;BMP280;59655;42.590;23.364;2023-01-15T04:34:30;91741.53;;;3.38
71807;BMP280;59655;42.590;23.364;2023-01-15T04:36:56;91733.91;;;3.35
71807;BMP280;59655;42.590;23.364;2023-01-15T04:39:22;91744.41;;;3.24
71807;BMP280;59655;42.590;23.364;2023-01-15T04:41:48;91748.44;;;3.13
71807;BMP280;59655;42.590;23.364;2023-01-15T04:44:33;91747.72;;;3.07
71807;BMP280;59655;42.590;23.364;2023-01-15T04:46:59;91752.50;;;3.26
71807;BMP280;59655;42.590;23.364;2023-01-15T04:49:25;91752.72;;;3.28
71807;BMP280;59655;42.590;23.364;2023-01-15T04:51:51;91751.53;;;3.17
71807;BMP280;59655;42.590;23.364;2023-01-15T04:54:17;91751.53;;;3.17
71807;BMP280;59655;42.590;23.364;2023-01-15T04:56:48;91750.34;;;3.30
71807;BMP280;59655;42.590;23.364;2023-01-15T04:59:16;91752.50;;;3.31
71807;BMP280;59655;42.590;23.364;2023-01-15T05:01:41;91741.53;;;3.33
71807;BMP280;59655;42.590;23.364;2023-01-15T05:04:07;91742.94;;;3.34
71807;BMP280;59655;42.590;23.364;2023-01-15T05:06:32;91742.47;;;3.30
71807;BMP280;59655;42.590;23.364;2023-01-15T05:08:59;91746.31;;;3.34
71807;BMP280;59655;42.590;23.364;2023-01-15T05:11:25;91741.28;;;3.19
71807;BMP280;59655;42.590;23.364;2023-01-15T05:13:51;91742.00;;;3.14
71807;BMP280;59655;42.590;23.364;2023-01-15T05:16:20;91744.13;;;3.10
71807;BMP280;59655;42.590;23.364;2023-01-15T05:18:48;91745.09;;;3.18
71807;BMP280;59655;42.590;23.364;2023-01-15T05:21:23;91742.72;;;3.32
71807;BMP280;59655;42.590;23.364;2023-01-15T05:23:51;91742.94;;;3.34
71807;BMP280;59655;42.590;23.364;2023-01-15T05:26:18;91733.19;;;3.34
71807;BMP280;59655;42.590;23.364;2023-01-15T05:28:44;91742.22;;;3.28
71807;BMP280;59655;42.590;23.364;2023-01-15T05:31:12;91737.00;;;3.33
71807;BMP280;59655;42.590;23.364;2023-01-15T05:33:39;91741.06;;;3.34
71807;BMP280;59655;42.590;23.364;2023-01-15T05:36:08;91741.06;;;3.34
71807;BMP280;59655;42.590;23.364;2023-01-15T05:38:34;91734.63;;;3.41
71807;BMP280;59655;42.590;23.364;2023-01-15T05:41:03;91735.09;;;3.39
71807;BMP280;59655;42.590;23.364;2023-01-15T05:43:48;91732.47;;;3.28
71807;BMP280;59655;42.590;23.364;2023-01-15T05:46:14;91728.19;;;3.36
71807;BMP280;59655;42.590;23.364;2023-01-15T05:48:39;91727.47;;;3.42
71807;BMP280;59655;42.590;23.364;2023-01-15T05:51:04;91726.75;;;3.24
71807;BMP280;59655;42.590;23.364;2023-01-15T05:53:30;91732.72;;;3.13
71807;BMP280;59655;42.590;23.364;2023-01-15T05:56:00;91736.72;;;2.86
71807;BMP280;59655;42.590;23.364;2023-01-15T05:58:26;91738.41;;;2.95
71807;BMP280;59655;42.590;23.364;2023-01-15T06:00:51;91739.84;;;2.96
71807;BMP280;59655;42.590;23.364;2023-01-15T06:03:16;91752.00;;;3.16
71807;BMP280;59655;42.590;23.364;2023-01-15T06:05:42;91745.09;;;3.13
71807;BMP280;59655;42.590;23.364;2023-01-15T06:08:07;91753.88;;;2.98
71807;BMP280;59655;42.590;23.364;2023-01-15T06:10:32;91749.13;;;3.03
71807;BMP280;59655;42.590;23.364;2023-01-15T06:12:58;91746.50;;;2.91
71807;BMP280;59655;42.590;23.364;2023-01-15T06:15:23;91744.13;;;3.05
71807;BMP280;59655;42.590;23.364;2023-01-15T06:17:49;91747.47;;;3.16
71807;BMP280;59655;42.590;23.364;2023-01-15T06:20:15;91745.34;;;3.09
71807;BMP280;59655;42.590;23.364;2023-01-15T06:22:40;91748.44;;;3.13
71807;BMP280;59655;42.590;23.364;2023-01-15T06:25:06;91750.09;;;3.28
71807;BMP280;59655;42.590;23.364;2023-01-15T06:27:32;91750.84;;;3.23
71807;BMP280;59655;42.590;23.364;2023-01-15T06:29:57;91748.19;;;3.34
71807;BMP280;59655;42.590;23.364;2023-01-15T06:32:24;91742.94;;;3.34
71807;BMP280;59655;42.590;23.364;2023-01-15T06:34:50;91738.47;;;3.46
71807;BMP280;59655;42.590;23.364;2023-01-15T06:37:15;91742.50;;;3.41
71807;BMP280;59655;42.590;23.364;2023-01-15T06:39:40;91743.69;;;3.51
71807;BMP280;59655;42.590;23.364;2023-01-15T06:42:07;91750.81;;;3.39
71807;BMP280;59655;42.590;23.364;2023-01-15T06:44:51;91739.63;;;3.45
71807;BMP280;59655;42.590;23.364;2023-01-15T06:47:35;91747.94;;;3.54
71807;BMP280;59655;42.590;23.364;2023-01-15T06:50:00;91753.19;;;3.37
71807;BMP280;59655;42.590;23.364;2023-01-15T06:52:28;91753.19;;;3.54
71807;BMP280;59655;42.590;23.364;2023-01-15T06:54:54;91754.16;;;3.57
71807;BMP280;59655;42.590;23.364;2023-01-15T06:57:19;91748.22;;;3.45
71807;BMP280;59655;42.590;23.364;2023-01-15T06:59:46;91750.56;;;3.54
71807;BMP280;59655;42.590;23.364;2023-01-15T07:02:11;91744.88;;;3.62
71807;BMP280;59655;42.590;23.364;2023-01-15T07:04:36;91747.97;;;3.60
71807;BMP280;59655;42.590;23.364;2023-01-15T07:07:02;91751.53;;;3.63
71807;BMP280;59655;42.590;23.364;2023-01-15T07:09:27;91752.25;;;3.63
71807;BMP280;59655;42.590;23.364;2023-01-15T07:11:53;91739.63;;;3.62
71807;BMP280;59655;42.590;23.364;2023-01-15T07:14:21;91739.84;;;3.64
71807;BMP280;59655;42.590;23.364;2023-01-15T07:16:47;91740.56;;;3.64
71807;BMP280;59655;42.590;23.364;2023-01-15T07:19:13;91748.69;;;3.72
71807;BMP280;59655;42.590;23.364;2023-01-15T07:21:39;91747.22;;;3.76
71807;BMP280;59655;42.590;23.364;2023-01-15T07:24:05;91749.13;;;3.81
71807;BMP280;59655;42.590;23.364;2023-01-15T07:26:30;91737.22;;;3.80
71807;BMP280;59655;42.590;23.364;2023-01-15T07:28:56;91742.25;;;3.73
71807;BMP280;59655;42.590;23.364;2023-01-15T07:31:21;91746.28;;;3.57
71807;BMP280;59655;42.590;23.364;2023-01-15T07:33:47;91745.34;;;3.49
71807;BMP280;59655;42.590;23.364;2023-01-15T07:36:12;91747.50;;;3.56
71807;BMP280;59655;42.590;23.364;2023-01-15T07:38:37;91744.66;;;3.48
71807;BMP280;59655;42.590;23.364;2023-01-15T07:41:03;91751.03;;;3.53
71807;BMP280;59655;42.590;23.364;2023-01-15T07:43:47;91752.97;;;3.75
71807;BMP280;59655;42.590;23.364;2023-01-15T07:46:31;91750.81;;;3.85
71807;BMP280;59655;42.590;23.364;2023-01-15T07:49:15;91755.56;;;3.92
71807;BMP280;59655;42.590;23.364;2023-01-15T07:51:59;91754.38;;;3.93
71807;BMP280;59655;42.590;23.364;2023-01-15T07:54:25;91747.88;;;3.99
71807;BMP280;59655;42.590;23.364;2023-01-15T07:56:51;91749.56;;;4.03
71807;BMP280;59655;42.590;23.364;2023-01-15T07:59:18;91756.50;;;4.06
71807;BMP280;59655;42.590;23.364;2023-01-15T08:01:43;91756.50;;;4.06
71807;BMP280;59655;42.590;23.364;2023-01-15T08:04:09;91744.31;;;4.08
71807;BMP280;59655;42.590;23.364;2023-01-15T08:06:35;91750.25;;;4.09
71807;BMP280;59655;42.590;23.364;2023-01-15T08:09:01;91758.63;;;4.07
71807;BMP280;59655;42.590;23.364;2023-01-15T08:11:27;91752.41;;;4.10
71807;BMP280;59655;42.590;23.364;2023-01-15T08:14:11;91754.34;;;4.10
71807;BMP280;59655;42.590;23.364;2023-01-15T08:16:55;91756.97;;;4.10
71807;BMP280;59655;42.590;23.364;2023-01-15T08:19:20;91761.00;;;4.11
71807;BMP280;59655;42.590;23.364;2023-01-15T08:21:46;91757.66;;;4.10
71807;BMP280;59655;42.590;23.364;2023-01-15T08:24:12;91758.13;;;4.14
71807;BMP280;59655;42.590;23.364;2023-01-15T08:26:37;91761.47;;;4.15
71807;BMP280;59655;42.590;23.364;2023-01-15T08:29:03;91769.34;;;4.15
71807;BMP280;59655;42.590;23.364;2023-01-15T08:31:28;91767.69;;;4.06
71807;BMP280;59655;42.590;23.364;2023-01-15T08:33:53;91774.59;;;4.15
71807;BMP280;59655;42.590;23.364;2023-01-15T08:36:19;91775.09;;;4.19
71807;BMP280;59655;42.590;23.364;2023-01-15T08:38:47;91777.19;;;4.20
71807;BMP280;59655;42.590;23.364;2023-01-15T08:41:14;91765.03;;;4.23
71807;BMP280;59655;42.590;23.364;2023-01-15T08:43:39;91766.91;;;4.22
71807;BMP280;59655;42.590;23.364;2023-01-15T08:46:04;91768.38;;;4.24
71807;BMP280;59655;42.590;23.364;2023-01-15T08:48:31;91765.03;;;4.23
71807;BMP280;59655;42.590;23.364;2023-01-15T08:50:57;91757.84;;;4.29
71807;BMP280;59655;42.590;23.364;2023-01-15T08:53:22;91755.94;;;4.30
71807;BMP280;59655;42.590;23.364;2023-01-15T08:55:49;91763.59;;;4.28
71807;BMP280;59655;42.590;23.364;2023-01-15T08:58:16;91762.41;;;4.23
71807;BMP280;59655;42.590;23.364;2023-01-15T09:00:42;91761.91;;;4.30
71807;BMP280;59655;42.590;23.364;2023-01-15T09:03:08;91767.88;;;4.25
71807;BMP280;59655;42.590;23.364;2023-01-15T09:05:35;91766.44;;;4.30
71807;BMP280;59655;42.590;23.364;2023-01-15T09:08:01;91758.56;;;4.30
71807;BMP280;59655;42.590;23.364;2023-01-15T09:10:26;91766.44;;;4.35
71807;BMP280;59655;42.590;23.364;2023-01-15T09:12:52;91763.09;;;4.40
71807;BMP280;59655;42.590;23.364;2023-01-15T09:15:17;91764.75;;;4.38
71807;BMP280;59655;42.590;23.364;2023-01-15T09:17:42;91763.09;;;4.35
71807;BMP280;59655;42.590;23.364;2023-01-15T09:20:10;91754.47;;;4.40
71807;BMP280;59655;42.590;23.364;2023-01-15T09:22:36;91753.50;;;4.43
71807;BMP280;59655;42.590;23.364;2023-01-15T09:25:01;91747.28;;;4.46
71807;BMP280;59655;42.590;23.364;2023-01-15T09:27:27;91750.16;;;4.48
71807;BMP280;59655;42.590;23.364;2023-01-15T09:29:53;91752.78;;;4.48
71807;BMP280;59655;42.590;23.364;2023-01-15T09:32:18;91748.22;;;4.49
71807;BMP280;59655;42.590;23.364;2023-01-15T09:34:44;91747.97;;;4.52
71807;BMP280;59655;42.590;23.364;2023-01-15T09:37:09;91743.22;;;4.45
71807;BMP280;59655;42.590;23.364;2023-01-15T09:39:39;91742.25;;;4.48
71807;BMP280;59655;42.590;23.364;2023-01-15T09:47:44;91732.69;;;4.56
71807;BMP280;59655;42.590;23.364;2023-01-15T09:55:45;91711.78;;;4.28
71807;BMP280;59655;42.590;23.364;2023-01-15T09:58:14;91706.44;;;4.45
71807;BMP280;59655;42.590;23.364;2023-01-15T10:00:50;91712.59;;;4.59
71807;BMP280;59655;42.590;23.364;2023-01-15T10:03:27;91695.38;;;4.63
71807;BMP280;59655;42.590;23.364;2023-01-15T10:09:03;91687.47;;;4.69
71807;BMP280;59655;42.590;23.364;2023-01-15T10:11:37;91684.34;;;4.71
71807;BMP280;59655;42.590;23.364;2023-01-15T10:14:57;91683.38;;;4.74
71807;BMP280;59655;42.590;23.364;2023-01-15T10:17:34;91671.59;;;4.80
71807;BMP280;59655;42.590;23.364;2023-01-15T10:20:04;91671.59;;;4.80
71807;BMP280;59655;42.590;23.364;2023-01-15T10:25:59;91662.53;;;4.81
71807;BMP280;59655;42.590;23.364;2023-01-15T10:28:31;91660.56;;;4.88
71807;BMP280;59655;42.590;23.364;2023-01-15T10:31:14;91650.50;;;4.92
71807;BMP280;59655;42.590;23.364;2023-01-15T10:36:40;91651.16;;;4.98
71807;BMP280;59655;42.590;23.364;2023-01-15T10:44:58;91635.59;;;5.00
71807;BMP280;59655;42.590;23.364;2023-01-15T10:47:31;91636.13;;;4.98
71807;BMP280;59655;42.590;23.364;2023-01-15T10:50:00;91638.25;;;5.00
71807;BMP280;59655;42.590;23.364;2023-01-15T10:52:32;91628.69;;;5.02
71807;BMP280;59655;42.590;23.364;2023-01-15T10:55:09;91629.66;;;4.99
71807;BMP280;59655;42.590;23.364;2023-01-15T11:00:31;91616.09;;;4.95
71807;BMP280;59655;42.590;23.364;2023-01-15T11:03:04;91614.75;;;5.08
71807;BMP280;59655;42.590;23.364;2023-01-15T11:05:39;91609.66;;;5.15
71807;BMP280;59655;42.590;23.364;2023-01-15T11:08:15;91602.69;;;5.23
71807;BMP280;59655;42.590;23.364;2023-01-15T11:10:44;91599.09;;;5.21
71807;BMP280;59655;42.590;23.364;2023-01-15T11:13:23;91591.38;;;5.29
71807;BMP280;59655;42.590;23.364;2023-01-15T11:16:16;91584.88;;;5.35
71807;BMP280;59655;42.590;23.364;2023-01-15T11:19:05;91592.72;;;5.41
71807;BMP280;59655;42.590;23.364;2023-01-15T11:21:51;91585.31;;;5.39
71807;BMP280;59655;42.590;23.364;2023-01-15T11:24:17;91582.41;;;5.43
71807;BMP280;59655;42.590;23.364;2023-01-15T11:26:48;91585.03;;;5.43
71807;BMP280;59655;42.590;23.364;2023-01-15T11:29:31;91579.78;;;5.43
71807;BMP280;59655;42.590;23.364;2023-01-15T11:31:57;91583.75;;;5.50
71807;BMP280;59655;42.590;23.364;2023-01-15T11:34:24;91566.75;;;5.51
71807;BMP280;59655;42.590;23.364;2023-01-15T11:37:04;91571.09;;;5.48
71807;BMP280;59655;42.590;23.364;2023-01-15T11:39:29;91564.44;;;5.47
71807;BMP280;59655;42.590;23.364;2023-01-15T11:42:04;91565.13;;;5.48
71807;BMP280;59655;42.590;23.364;2023-01-15T11:44:52;91556.44;;;5.53
71807;BMP280;59655;42.590;23.364;2023-01-15T11:47:36;91558.81;;;5.56
71807;BMP280;59655;42.590;23.364;2023-01-15T11:50:20;91555.00;;;5.52
71807;BMP280;59655;42.590;23.364;2023-01-15T11:53:06;91553.81;;;5.53
71807;BMP280;59655;42.590;23.364;2023-01-15T11:55:32;91549.47;;;5.55
71807;BMP280;59655;42.590;23.364;2023-01-15T11:57:59;91551.13;;;5.58
71807;BMP280;59655;42.590;23.364;2023-01-15T12:00:41;91545.38;;;5.60
71807;BMP280;59655;42.590;23.364;2023-01-15T12:03:18;91545.94;;;5.53
71807;BMP280;59655;42.590;23.364;2023-01-15T12:05:46;91544.22;;;5.55
71807;BMP280;59655;42.590;23.364;2023-01-15T12:11:25;91538.97;;;5.55
71807;BMP280;59655;42.590;23.364;2023-01-15T12:16:41;91542.97;;;5.62
71807;BMP280;59655;42.590;23.364;2023-01-15T12:22:35;91536.53;;;5.57
71807;BMP280;59655;42.590;23.364;2023-01-15T12:25:22;91529.13;;;5.56
71807;BMP280;59655;42.590;23.364;2023-01-15T12:27:56;91528.50;;;5.69
71807;BMP280;59655;42.590;23.364;2023-01-15T12:30:38;91535.22;;;5.70
71807;BMP280;59655;42.590;23.364;2023-01-15T12:33:15;91529.47;;;5.65
71807;BMP280;59655;42.590;23.364;2023-01-15T12:35:46;91525.88;;;5.69
71807;BMP280;59655;42.590;23.364;2023-01-15T12:41:12;91526.31;;;5.73
71807;BMP280;59655;42.590;23.364;2023-01-15T12:43:42;91516.47;;;5.73
71807;BMP280;59655;42.590;23.364;2023-01-15T12:46:30;91517.91;;;5.74
71807;BMP280;59655;42.590;23.364;2023-01-15T12:54:35;91515.78;;;5.73
71807;BMP280;59655;42.590;23.364;2023-01-15T12:57:18;91508.38;;;5.71
71807;BMP280;59655;42.590;23.364;2023-01-15T13:00:03;91507.59;;;5.76
71807;BMP280;59655;42.590;23.364;2023-01-15T13:05:40;91498.31;;;5.75
71807;BMP280;59655;42.590;23.364;2023-01-15T13:08:30;91491.72;;;5.82
71807;BMP280;59655;42.590;23.364;2023-01-15T13:10:57;91501.97;;;5.85
71807;BMP280;59655;42.590;23.364;2023-01-15T13:13:25;91491.66;;;5.88
71807;BMP280;59655;42.590;23.364;2023-01-15T13:16:07;91484.63;;;5.77
71807;BMP280;59655;42.590;23.364;2023-01-15T13:21:12;91489.72;;;5.88
71807;BMP280;59655;42.590;23.364;2023-01-15T13:37:19;91470.00;;;6.40
71807;BMP280;59655;42.590;23.364;2023-01-15T13:39:46;91463.25;;;6.45
71807;BMP280;59655;42.590;23.364;2023-01-15T13:42:20;91456.66;;;6.52
71807;BMP280;59655;42.590;23.364;2023-01-15T13:45:22;91450.00;;;6.51
71807;BMP280;59655;42.590;23.364;2023-01-15T13:47:54;91462.31;;;6.56
71807;BMP280;59655;42.590;23.364;2023-01-15T13:50:29;91458.28;;;6.68
71807;BMP280;59655;42.590;23.364;2023-01-15T13:53:01;91452.50;;;6.69
71807;BMP280;59655;42.590;23.364;2023-01-15T13:55:36;91465.25;;;6.65
71807;BMP280;59655;42.590;23.364;2023-01-15T13:58:23;91458.09;;;6.66
71807;BMP280;59655;42.590;23.364;2023-01-15T14:01:07;91454.63;;;6.71
71807;BMP280;59655;42.590;23.364;2023-01-15T14:03:34;91454.53;;;6.63
71807;BMP280;59655;42.590;23.364;2023-01-15T14:06:07;91443.66;;;6.54
71807;BMP280;59655;42.590;23.364;2023-01-15T14:11:01;91448.94;;;6.40
71807;BMP280;59655;42.590;23.364;2023-01-15T14:14:01;91454.31;;;6.35
71807;BMP280;59655;42.590;23.364;2023-01-15T14:19:28;91452.91;;;6.01
71807;BMP280;59655;42.590;23.364;2023-01-15T14:22:25;91457.00;;;5.83
71807;BMP280;59655;42.590;23.364;2023-01-15T14:35:43;91450.28;;;5.50
71807;BMP280;59655;42.590;23.364;2023-01-15T14:38:14;91448.50;;;5.39
71807;BMP280;59655;42.590;23.364;2023-01-15T14:40:52;91449.72;;;5.19
71807;BMP280;59655;42.590;23.364;2023-01-15T14:43:20;91446.22;;;5.11
71807;BMP280;59655;42.590;23.364;2023-01-15T14:45:47;91445.53;;;5.11
71807;BMP280;59655;42.590;23.364;2023-01-15T14:50:52;91448.78;;;5.17
71807;BMP280;59655;42.590;23.364;2023-01-15T14:55:50;91451.97;;;4.91
71807;BMP280;59655;42.590;23.364;2023-01-15T15:03:58;91448.03;;;4.54
71807;BMP280;59655;42.590;23.364;2023-01-15T15:06:26;91448.88;;;4.62
71807;BMP280;59655;42.590;23.364;2023-01-15T15:08:57;91447.81;;;4.52
71807;BMP280;59655;42.590;23.364;2023-01-15T15:11:37;91444.00;;;4.47
71807;BMP280;59655;42.590;23.364;2023-01-15T15:14:24;91449.66;;;4.57
71807;BMP280;59655;42.590;23.364;2023-01-15T15:16:52;91448.34;;;4.45
71807;BMP280;59655;42.590;23.364;2023-01-15T15:19:27;91450.31;;;4.38
71807;BMP280;59655;42.590;23.364;2023-01-15T15:21:57;91446.34;;;4.26
71807;BMP280;59655;42.590;23.364;2023-01-15T15:24:34;91447.16;;;4.15
71807;BMP280;59655;42.590;23.364;2023-01-15T15:27:19;91451.03;;;4.09
71807;BMP280;59655;42.590;23.364;2023-01-15T15:29:46;91447.25;;;4.04
71807;BMP280;59655;42.590;23.364;2023-01-15T15:32:23;91443.34;;;4.16
71807;BMP280;59655;42.590;23.364;2023-01-15T15:34:50;91450.50;;;4.16
71807;BMP280;59655;42.590;23.364;2023-01-15T15:39:52;91442.22;;;4.06
71807;BMP280;59655;42.590;23.364;2023-01-15T15:45:14;91446.81;;;3.53
71807;BMP280;59655;42.590;23.364;2023-01-15T15:48:30;91444.25;;;3.89
71807;BMP280;59655;42.590;23.364;2023-01-15T15:51:50;91442.22;;;4.06
71807;BMP280;59655;42.590;23.364;2023-01-15T15:54:26;91442.84;;;3.82
71807;BMP280;59655;42.590;23.364;2023-01-15T15:57:12;91441.22;;;3.79
71807;BMP280;59655;42.590;23.364;2023-01-15T15:59:47;91441.59;;;3.53
71807;BMP280;59655;42.590;23.364;2023-01-15T16:04:52;91443.31;;;3.45
71807;BMP280;59655;42.590;23.364;2023-01-15T16:07:26;91439.31;;;3.38
71807;BMP280;59655;42.590;23.364;2023-01-15T16:09:58;91437.78;;;3.54
71807;BMP280;59655;42.590;23.364;2023-01-15T16:12:28;91443.22;;;3.62
71807;BMP280;59655;42.590;23.364;2023-01-15T16:14:56;91437.78;;;3.54
71807;BMP280;59655;42.590;23.364;2023-01-15T16:17:24;91434.78;;;3.33
71807;BMP280;59655;42.590;23.364;2023-01-15T16:19:53;91432.41;;;3.35
71807;BMP280;59655;42.590;23.364;2023-01-15T16:22:19;91436.56;;;3.08
71807;BMP280;59655;42.590;23.364;2023-01-15T16:24:55;91435.78;;;3.24
71807;BMP280;59655;42.590;23.364;2023-01-15T16:27:30;91436.19;;;3.34
71807;BMP280;59655;42.590;23.364;2023-01-15T16:29:58;91437.75;;;3.07
71807;BMP280;59655;42.590;23.364;2023-01-15T16:32:29;91433.47;;;3.04
71807;BMP280;59655;42.590;23.364;2023-01-15T16:35:04;91434.41;;;3.12
71807;BMP280;59655;42.590;23.364;2023-01-15T16:37:30;91437.97;;;3.14
71807;BMP280;59655;42.590;23.364;2023-01-15T16:39:57;91440.59;;;3.14